createdAt,value
2018-04-22T00:01:15.957Z,46.56
2018-04-22T00:03:46.301Z,46.70
2018-04-22T00:06:17.053Z,46.67
2018-04-22T00:08:47.387Z,46.85
2018-04-22T00:11:17.721Z,46.45
2018-04-22T00:13:48.194Z,46.21
2018-04-22T00:16:19.306Z,45.75
2018-04-22T00:18:49.645Z,45.87
2018-04-22T00:21:20.393Z,46.04
2018-04-22T00:23:50.834Z,46.44
2018-04-22T00:26:21.101Z,46.34
2018-04-22T00:28:52.715Z,46.31
2018-04-22T00:31:23.262Z,46.54
2018-04-22T00:33:53.784Z,46.64
2018-04-22T00:36:25.218Z,47.00
2018-04-22T00:38:55.534Z,47.15
2018-04-22T00:41:26.525Z,47.31
2018-04-22T00:43:56.833Z,47.40
2018-04-22T00:46:33.217Z,47.23
2018-04-22T00:49:03.854Z,47.09
2018-04-22T00:51:34.044Z,47.03
2018-04-22T00:54:38.165Z,47.23
2018-04-22T00:57:08.692Z,47.65
2018-04-22T00:59:39.549Z,48.10
2018-04-22T01:02:09.798Z,48.09
2018-04-22T01:04:40.394Z,48.17
2018-04-22T01:07:10.858Z,48.83
2018-04-22T01:09:41.193Z,48.76
2018-04-22T01:12:11.817Z,48.97
2018-04-22T01:14:42.702Z,48.64
2018-04-22T01:17:13.351Z,48.56
2018-04-22T01:19:43.782Z,49.06
2018-04-22T01:22:14.035Z,49.58
2018-04-22T01:24:44.561Z,49.90
2018-04-22T01:27:15.103Z,50.00
2018-04-22T01:29:45.309Z,50.05
2018-04-22T01:32:15.689Z,50.25
2018-04-22T01:34:46.444Z,49.93
2018-04-22T01:37:16.703Z,50.06
2018-04-22T01:39:47.233Z,49.53
2018-04-22T01:42:18.948Z,49.31
2018-04-22T01:44:50.819Z,49.50
2018-04-22T01:47:21.731Z,49.72
2018-04-22T01:49:52.247Z,49.52
2018-04-22T01:52:22.527Z,49.88
2018-04-22T01:54:53.218Z,49.76
2018-04-22T01:57:23.483Z,49.47
2018-04-22T01:59:53.991Z,49.37
2018-04-22T02:02:25.958Z,49.63
2018-04-22T02:04:56.428Z,49.77
2018-04-22T02:07:27.264Z,49.64
2018-04-22T02:09:57.627Z,49.37
2018-04-22T02:12:28.843Z,49.29
2018-04-22T02:15:00.020Z,49.29
2018-04-22T02:17:31.240Z,49.24
2018-04-22T02:20:01.323Z,49.49
2018-04-22T02:22:31.770Z,50.22
2018-04-22T02:25:01.867Z,50.98
2018-04-22T02:27:32.084Z,51.17
2018-04-22T02:30:06.597Z,51.17
2018-04-22T02:32:37.182Z,50.72
2018-04-22T02:35:07.384Z,50.73
2018-04-22T02:37:38.480Z,51.12
2018-04-22T02:40:14.266Z,50.79
2018-04-22T02:42:52.934Z,50.79
2018-04-22T02:45:30.096Z,50.60
2018-04-22T02:48:02.197Z,50.83
2018-04-22T02:53:43.249Z,51.16
2018-04-22T02:56:15.387Z,51.34
2018-04-22T02:58:45.611Z,51.18
2018-04-22T03:01:15.831Z,51.70
2018-04-22T03:04:04.490Z,51.71
2018-04-22T03:06:39.867Z,51.97
2018-04-22T03:09:22.129Z,52.13
2018-04-22T03:11:54.832Z,51.65
2018-04-22T03:14:25.494Z,51.81
2018-04-22T03:16:56.271Z,51.72
2018-04-22T03:22:30.278Z,51.50
2018-04-22T03:25:00.447Z,51.99
2018-04-22T03:27:31.442Z,52.13
2018-04-22T03:30:07.817Z,51.88
2018-04-22T03:32:38.970Z,52.28
2018-04-22T03:35:09.314Z,52.60
2018-04-22T03:37:40.309Z,52.83
2018-04-22T03:40:10.829Z,53.03
2018-04-22T03:42:42.811Z,53.63
2018-04-22T03:45:15.891Z,53.75
2018-04-22T03:47:50.903Z,53.40
2018-04-22T03:50:20.944Z,53.55
2018-04-22T03:52:51.787Z,53.67
2018-04-22T03:55:22.256Z,53.75
2018-04-22T03:57:52.547Z,53.69
2018-04-22T04:00:23.138Z,53.58
2018-04-22T04:02:55.428Z,53.50
2018-04-22T04:05:28.269Z,53.55
2018-04-22T04:07:58.391Z,53.74
2018-04-22T04:10:28.568Z,53.64
2018-04-22T04:12:59.104Z,53.79
2018-04-22T04:15:30.118Z,53.61
2018-04-22T04:18:09.393Z,53.77
2018-04-22T04:22:48.748Z,53.65
2018-04-22T04:27:32.701Z,53.54
2018-04-22T04:30:04.921Z,53.88
2018-04-22T04:32:36.471Z,54.11
2018-04-22T04:35:06.670Z,54.07
2018-04-22T04:37:36.920Z,54.80
2018-04-22T04:40:07.622Z,54.96
2018-04-22T04:42:37.786Z,54.68
2018-04-22T04:45:08.116Z,54.36
2018-04-22T04:47:38.603Z,54.46
2018-04-22T04:50:08.743Z,54.56
2018-04-22T04:52:39.283Z,54.39
2018-04-22T04:55:09.553Z,53.65
2018-04-22T04:57:39.673Z,53.59
2018-04-22T05:00:10.902Z,54.15
2018-04-22T05:02:45.057Z,54.47
2018-04-22T05:05:15.261Z,54.42
2018-04-22T05:07:46.334Z,53.73
2018-04-22T05:10:16.584Z,52.98
2018-04-22T05:12:46.716Z,53.17
2018-04-22T05:15:17.227Z,53.71
2018-04-22T05:17:47.410Z,54.01
2018-04-22T05:20:18.094Z,54.09
2018-04-22T05:22:49.562Z,54.04
2018-04-22T05:25:19.701Z,53.84
2018-04-22T05:27:50.943Z,53.67
2018-04-22T05:30:22.127Z,53.55
2018-04-22T05:32:52.395Z,52.76
2018-04-22T05:35:31.233Z,51.82
2018-04-22T05:38:01.493Z,51.20
2018-04-22T05:40:31.699Z,50.71
2018-04-22T05:43:02.877Z,50.69
2018-04-22T05:45:33.683Z,50.01
2018-04-22T05:48:04.158Z,49.97
2018-04-22T05:50:34.380Z,49.64
2018-04-22T05:53:05.003Z,49.44
2018-04-22T05:55:35.098Z,48.94
2018-04-22T05:58:05.342Z,48.73
2018-04-22T06:00:36.820Z,48.65
2018-04-22T06:03:07.120Z,48.66
2018-04-22T06:05:37.816Z,47.99
2018-04-22T06:08:09.254Z,46.99
2018-04-22T06:10:39.541Z,46.85
2018-04-22T06:13:09.655Z,46.35
2018-04-22T06:18:41.056Z,45.40
2018-04-22T06:21:11.566Z,45.25
2018-04-22T06:23:42.520Z,45.82
2018-04-22T06:26:12.960Z,46.49
2018-04-22T06:28:43.452Z,45.50
2018-04-22T06:31:14.007Z,44.45
2018-04-22T06:33:44.202Z,43.71
2018-04-22T06:36:14.640Z,43.61
2018-04-22T06:38:44.912Z,42.91
2018-04-22T06:41:15.418Z,41.67
2018-04-22T06:43:45.869Z,40.85
2018-04-22T06:46:16.206Z,40.52
2018-04-22T06:48:48.299Z,40.80
2018-04-22T06:51:21.335Z,40.67
2018-04-22T06:53:52.823Z,40.32
2018-04-22T06:56:31.557Z,40.45
2018-04-22T06:59:01.699Z,40.11
2018-04-22T07:01:32.069Z,40.62
2018-04-22T07:04:02.627Z,41.25
2018-04-22T07:06:33.260Z,40.75
2018-04-22T07:09:03.429Z,40.42
2018-04-22T07:11:34.293Z,40.05
2018-04-22T07:14:04.528Z,40.86
2018-04-22T07:16:35.018Z,41.07
2018-04-22T07:19:13.886Z,40.24
2018-04-22T07:21:51.801Z,38.86
2018-04-22T07:24:23.005Z,38.93
2018-04-22T07:26:53.726Z,41.04
2018-04-22T07:29:23.950Z,39.29
2018-04-22T07:31:54.870Z,38.26
2018-04-22T07:34:25.282Z,38.75
2018-04-22T07:36:56.371Z,39.04
2018-04-22T07:39:42.609Z,37.81
2018-04-22T07:42:13.446Z,39.33
2018-04-22T07:44:45.467Z,39.03
2018-04-22T07:47:25.827Z,38.88
2018-04-22T07:55:36.692Z,38.58
2018-04-22T07:58:13.280Z,40.28
2018-04-22T08:00:45.327Z,38.26
2018-04-22T08:03:16.252Z,38.05
2018-04-22T08:05:46.361Z,37.44
2018-04-22T08:08:17.187Z,36.73
2018-04-22T08:10:47.433Z,37.11
2018-04-22T08:13:18.027Z,36.76
2018-04-22T08:15:49.240Z,37.17
2018-04-22T08:18:21.281Z,36.99
2018-04-22T08:20:59.091Z,37.58
2018-04-22T08:23:29.613Z,38.79
2018-04-22T08:26:00.400Z,37.55
2018-04-22T08:28:35.392Z,35.85
2018-04-22T08:31:06.817Z,35.95
2018-04-22T08:33:38.165Z,38.24
2018-04-22T08:36:12.326Z,37.00
2018-04-22T08:38:55.848Z,36.64
2018-04-22T08:41:33.330Z,36.38
2018-04-22T08:44:07.072Z,34.59
2018-04-22T08:46:40.163Z,34.41
2018-04-22T08:49:15.436Z,34.24
2018-04-22T08:54:28.051Z,35.68
2018-04-22T08:57:00.175Z,33.37
2018-04-22T08:59:31.198Z,33.20
2018-04-22T09:02:04.349Z,32.57
2018-04-22T09:04:40.199Z,31.08
2018-04-22T09:07:24.047Z,30.58
2018-04-22T09:10:00.231Z,31.19
2018-04-22T09:12:31.073Z,31.06
2018-04-22T09:15:03.428Z,30.79
2018-04-22T09:17:36.044Z,32.55
2018-04-22T09:20:06.411Z,33.86
2018-04-22T09:22:37.441Z,31.94
2018-04-22T09:25:14.160Z,31.44
2018-04-22T09:27:44.477Z,31.30
2018-04-22T09:30:22.606Z,31.29
2018-04-22T09:32:53.533Z,29.91
2018-04-22T09:35:27.173Z,30.00
2018-04-22T09:37:57.504Z,28.79
2018-04-22T09:40:31.669Z,29.83
2018-04-22T09:43:11.825Z,29.21
2018-04-22T09:45:47.992Z,28.39
2018-04-22T09:48:18.833Z,27.75
2018-04-22T09:50:49.539Z,27.85
2018-04-22T09:53:20.051Z,27.21
2018-04-22T09:55:53.105Z,27.89
2018-04-22T09:58:24.104Z,27.40
2018-04-22T10:01:01.983Z,27.07
2018-04-22T10:03:32.551Z,29.58
2018-04-22T10:06:08.635Z,30.98
2018-04-22T10:08:39.722Z,28.38
2018-04-22T10:11:10.304Z,27.97
2018-04-22T10:13:40.771Z,27.33
2018-04-22T10:16:11.810Z,26.54
2018-04-22T10:18:42.828Z,28.92
2018-04-22T10:21:14.443Z,27.97
2018-04-22T10:23:44.730Z,26.47
2018-04-22T10:26:24.836Z,25.29
2018-04-22T10:28:57.435Z,24.61
2018-04-22T10:31:29.615Z,23.96
2018-04-22T10:34:01.092Z,25.06
2018-04-22T10:36:32.425Z,26.01
2018-04-22T10:39:02.783Z,24.90
2018-04-22T10:41:33.887Z,24.52
2018-04-22T10:44:05.892Z,24.20
2018-04-22T10:46:37.253Z,23.61
2018-04-22T10:49:08.092Z,22.76
2018-04-22T10:51:38.653Z,22.60
2018-04-22T10:54:08.929Z,22.47
2018-04-22T10:56:40.528Z,23.18
2018-04-22T10:59:11.568Z,24.11
2018-04-22T11:01:42.444Z,24.64
2018-04-22T11:04:16.151Z,25.44
2018-04-22T11:06:47.539Z,26.43
2018-04-22T11:09:17.913Z,26.69
2018-04-22T11:11:56.973Z,26.61
2018-04-22T11:14:28.365Z,26.58
2018-04-22T11:17:00.653Z,27.09
2018-04-22T11:19:31.615Z,26.30
2018-04-22T11:22:04.814Z,25.33
2018-04-22T11:24:35.113Z,24.30
2018-04-22T11:27:06.087Z,25.63
2018-04-22T11:29:40.070Z,24.72
2018-04-22T11:32:10.735Z,24.10
2018-04-22T11:35:21.154Z,23.05
2018-04-22T11:37:55.257Z,23.32
2018-04-22T11:40:26.841Z,22.45
2018-04-22T11:42:58.258Z,21.80
2018-04-22T11:45:29.332Z,21.24
2018-04-22T11:47:59.789Z,20.22
2018-04-22T11:50:30.147Z,19.89
2018-04-22T11:53:00.696Z,19.55
2018-04-22T11:55:35.256Z,19.84
2018-04-22T11:58:06.698Z,20.05
2018-04-22T12:00:40.812Z,19.98
2018-04-22T12:03:11.783Z,19.85
2018-04-22T12:05:42.082Z,19.35
2018-04-22T12:08:15.610Z,19.03
2018-04-22T12:10:46.152Z,18.62
2018-04-22T12:13:24.432Z,19.19
2018-04-22T12:16:03.267Z,18.58
2018-04-22T12:18:36.923Z,18.57
2018-04-22T12:21:07.326Z,18.89
2018-04-22T12:23:40.499Z,20.21
2018-04-22T12:26:11.032Z,21.10
2018-04-22T12:28:41.340Z,20.72
2018-04-22T12:31:11.784Z,21.33
2018-04-22T12:33:53.932Z,21.38
2018-04-22T12:36:34.320Z,21.34
2018-04-22T12:39:08.878Z,21.31
2018-04-22T12:41:39.450Z,21.74
2018-04-22T12:44:10.939Z,22.57
2018-04-22T12:46:42.168Z,23.20
2018-04-22T12:52:12.515Z,24.23
2018-04-22T12:54:43.320Z,24.38
2018-04-22T12:57:15.470Z,25.58
2018-04-22T12:59:53.980Z,26.09
2018-04-22T13:02:25.491Z,26.42
2018-04-22T13:04:59.374Z,26.70
2018-04-22T13:07:30.696Z,26.93
2018-04-22T13:10:09.058Z,27.10
2018-04-22T13:12:44.539Z,27.62
2018-04-22T13:15:20.785Z,28.22
2018-04-22T13:17:52.344Z,34.16
2018-04-22T13:23:05.702Z,40.62
2018-04-22T13:25:36.929Z,40.81
2018-04-22T13:28:23.120Z,44.00
2018-04-22T13:31:14.416Z,44.49
2018-04-22T13:33:46.198Z,44.44
2018-04-22T13:36:19.544Z,44.15
2018-04-22T13:38:50.980Z,43.75
2018-04-22T13:41:22.509Z,43.94
2018-04-22T13:43:55.800Z,43.22
2018-04-22T13:46:27.398Z,42.99
2018-04-22T13:48:57.559Z,41.01
2018-04-22T13:51:31.368Z,41.40
2018-04-22T13:54:01.746Z,41.78
2018-04-22T13:56:33.797Z,40.45
2018-04-22T13:59:15.303Z,40.71
2018-04-22T14:01:45.779Z,42.75
2018-04-22T14:04:16.639Z,43.66
2018-04-22T14:06:47.452Z,42.71
2018-04-22T14:09:17.681Z,42.34
2018-04-22T14:11:49.006Z,41.87
2018-04-22T14:14:19.253Z,40.78
2018-04-22T14:16:51.693Z,39.40
2018-04-22T14:22:04.352Z,39.47
2018-04-22T14:24:41.862Z,39.35
2018-04-22T14:27:14.833Z,38.00
2018-04-22T14:29:45.491Z,37.31
2018-04-22T14:32:16.794Z,37.38
2018-04-22T14:34:49.802Z,34.92
2018-04-22T14:37:21.641Z,35.95
2018-04-22T14:39:54.852Z,36.68
2018-04-22T14:42:25.519Z,37.72
2018-04-22T14:45:10.167Z,38.25
2018-04-22T14:47:46.827Z,37.57
2018-04-22T14:50:22.802Z,37.88
2018-04-22T14:53:02.140Z,37.99
2018-04-22T14:55:38.710Z,37.05
2018-04-22T14:58:12.481Z,36.41
2018-04-22T15:03:21.850Z,36.36
2018-04-22T15:05:54.901Z,36.85
2018-04-22T15:08:27.003Z,36.51
2018-04-22T15:10:58.382Z,36.17
2018-04-22T15:13:30.450Z,36.09
2018-04-22T15:16:06.053Z,35.94
2018-04-22T15:18:43.738Z,35.35
2018-04-22T15:21:15.549Z,35.86
2018-04-22T15:23:47.299Z,35.56
2018-04-22T15:26:19.267Z,35.84
2018-04-22T15:28:50.928Z,36.35
2018-04-22T15:31:23.292Z,36.58
2018-04-22T15:33:58.117Z,36.90
2018-04-22T15:36:29.700Z,36.53
2018-04-22T15:39:00.989Z,36.38
2018-04-22T15:41:32.542Z,36.69
2018-04-22T15:44:04.471Z,35.55
2018-04-22T15:46:35.928Z,36.13
2018-04-22T15:49:07.238Z,35.78
2018-04-22T15:51:39.011Z,37.43
2018-04-22T15:54:10.921Z,39.27
2018-04-22T15:56:42.201Z,40.98
2018-04-22T15:59:14.147Z,43.35
2018-04-22T16:01:46.206Z,44.44
2018-04-22T16:04:20.859Z,44.45
2018-04-22T16:06:52.263Z,43.88
2018-04-22T16:09:24.055Z,44.42
2018-04-22T16:11:55.898Z,43.32
2018-04-22T16:14:29.839Z,41.77
2018-04-22T16:17:02.114Z,40.04
2018-04-22T16:19:35.888Z,39.54
2018-04-22T16:22:07.780Z,39.03
2018-04-22T16:24:39.479Z,38.87
2018-04-22T16:27:11.148Z,38.85
2018-04-22T16:30:04.474Z,39.41
2018-04-22T16:32:36.496Z,39.79
2018-04-22T16:35:09.025Z,39.85
2018-04-22T16:37:43.360Z,40.96
2018-04-22T16:40:15.480Z,43.34
2018-04-22T16:42:47.350Z,43.54
2018-04-22T16:45:27.576Z,45.55
2018-04-22T16:47:58.920Z,45.32
2018-04-22T16:50:30.765Z,45.42
2018-04-22T16:53:08.626Z,45.25
2018-04-22T16:55:39.806Z,46.52
2018-04-22T16:58:11.176Z,47.23
2018-04-22T17:00:44.421Z,46.97
2018-04-22T17:03:16.498Z,46.22
2018-04-22T17:05:47.919Z,46.72
2018-04-22T17:08:23.703Z,47.89
2018-04-22T17:10:55.141Z,47.47
2018-04-22T17:16:20.154Z,47.20
2018-04-22T17:18:54.661Z,48.02
2018-04-22T17:23:52.217Z,47.29
2018-04-22T17:26:23.982Z,47.44
2018-04-22T17:28:55.541Z,47.39
2018-04-22T17:31:27.488Z,47.36
2018-04-22T17:34:01.440Z,47.68
2018-04-22T17:36:32.884Z,47.16
2018-04-22T17:39:04.872Z,46.34
2018-04-22T17:41:36.371Z,46.01
2018-04-22T17:44:11.526Z,45.63
2018-04-22T17:46:44.876Z,45.61
2018-04-22T17:49:16.329Z,45.29
2018-04-22T17:51:47.949Z,45.11
2018-04-22T17:54:19.651Z,44.77
2018-04-22T17:56:55.255Z,44.63
2018-04-22T17:59:30.557Z,44.08
2018-04-22T18:02:03.867Z,42.83
2018-04-22T18:04:35.226Z,41.42
2018-04-22T18:07:08.758Z,40.83
2018-04-22T18:09:40.875Z,40.28
2018-04-22T18:12:12.535Z,39.79
2018-04-22T18:14:44.383Z,38.33
2018-04-22T18:17:17.673Z,36.88
2018-04-22T18:19:50.037Z,35.94
2018-04-22T18:22:41.366Z,35.07
2018-04-22T18:25:13.090Z,34.69
2018-04-22T18:27:44.803Z,33.83
2018-04-22T18:30:19.531Z,33.15
2018-04-22T18:32:52.291Z,32.83
2018-04-22T18:35:25.336Z,32.91
2018-04-22T18:38:14.745Z,32.63
2018-04-22T18:40:46.765Z,32.65
2018-04-22T18:43:18.767Z,32.53
2018-04-22T18:45:51.180Z,32.41
2018-04-22T18:48:26.107Z,32.49
2018-04-22T18:53:58.210Z,32.39
2018-04-22T18:56:29.659Z,32.58
2018-04-22T18:59:01.570Z,32.57
2018-04-22T19:01:36.319Z,32.77
2018-04-22T19:04:08.229Z,32.79
2018-04-22T19:06:41.669Z,32.87
2018-04-22T19:09:24.470Z,32.82
2018-04-22T19:11:56.770Z,33.29
2018-04-22T19:14:30.024Z,33.25
2018-04-22T19:17:02.483Z,33.43
2018-04-22T19:19:33.927Z,33.35
2018-04-22T19:22:06.095Z,33.40
2018-04-22T19:24:37.932Z,33.47
2018-04-22T19:27:10.093Z,33.53
2018-04-22T19:29:42.709Z,33.69
2018-04-22T19:34:56.196Z,34.00
2018-04-22T19:37:30.660Z,33.95
2018-04-22T19:40:13.556Z,34.03
2018-04-22T19:42:55.538Z,34.38
2018-04-22T19:45:33.121Z,36.05
2018-04-22T19:48:06.401Z,37.14
2018-04-22T19:50:38.474Z,37.51
2018-04-22T19:53:10.158Z,37.16
2018-04-22T19:55:41.900Z,38.11
2018-04-22T19:58:14.802Z,38.11
2018-04-22T20:00:46.755Z,38.35
2018-04-22T20:03:18.212Z,38.58
2018-04-22T20:05:56.098Z,39.02
2018-04-22T20:08:27.490Z,39.41
2018-04-22T20:11:00.221Z,39.62
2018-04-22T20:13:32.128Z,39.49
2018-04-22T20:16:06.963Z,39.78
2018-04-22T20:18:43.278Z,40.06
2018-04-22T20:21:16.099Z,40.04
2018-04-22T20:23:48.363Z,39.87
2018-04-22T20:26:20.324Z,40.00
2018-04-22T20:28:55.970Z,40.04
2018-04-22T20:31:35.577Z,39.97
2018-04-22T20:34:07.508Z,40.20
2018-04-22T20:36:45.023Z,40.47
2018-04-22T20:39:17.674Z,40.79
2018-04-22T20:41:49.289Z,41.60
2018-04-22T20:44:21.348Z,41.84
2018-04-22T20:46:53.855Z,41.73
2018-04-22T20:49:25.631Z,41.84
2018-04-22T20:51:59.463Z,41.92
2018-04-22T20:54:31.280Z,42.35
2018-04-22T20:57:03.022Z,42.69
2018-04-22T20:59:34.574Z,42.59
2018-04-22T21:02:07.180Z,42.73
2018-04-22T21:04:39.162Z,42.79
2018-04-22T21:07:11.047Z,43.23
2018-04-22T21:09:42.562Z,43.50
2018-04-22T21:12:14.002Z,43.29
2018-04-22T21:14:46.183Z,43.99
2018-04-22T21:20:05.221Z,43.90
2018-04-22T21:22:44.526Z,43.86
2018-04-22T21:25:16.805Z,44.17
2018-04-22T21:27:49.934Z,44.35
2018-04-22T21:30:23.268Z,44.23
2018-04-22T21:33:02.790Z,45.03
2018-04-22T21:35:34.843Z,45.52
2018-04-22T21:38:06.905Z,45.41
2018-04-22T21:40:39.538Z,45.27
2018-04-22T21:43:10.993Z,46.18
2018-04-22T21:45:43.301Z,46.48
2018-04-22T21:48:15.528Z,46.57
2018-04-22T21:50:54.618Z,46.34
2018-04-22T21:53:32.454Z,46.77
2018-04-22T21:56:05.867Z,47.08
2018-04-22T21:58:38.242Z,47.87
2018-04-22T22:01:10.586Z,47.95
2018-04-22T22:03:42.628Z,47.56
2018-04-22T22:06:14.329Z,48.38
2018-04-22T22:08:45.806Z,49.41
2018-04-22T22:11:17.272Z,49.24
2018-04-22T22:13:48.654Z,49.17
2018-04-22T22:16:20.663Z,49.56
2018-04-22T22:18:52.370Z,49.34
2018-04-22T22:21:24.549Z,49.76
2018-04-22T22:23:56.141Z,50.28
2018-04-22T22:26:28.364Z,50.55
2018-04-22T22:28:59.888Z,51.04
2018-04-22T22:31:32.922Z,51.04
2018-04-22T22:34:04.370Z,50.74
2018-04-22T22:36:35.958Z,51.08
2018-04-22T22:39:08.292Z,52.07
2018-04-22T22:41:40.555Z,53.07
2018-04-22T22:44:11.930Z,53.46
2018-04-22T22:46:43.821Z,53.75
2018-04-22T22:49:15.332Z,54.15
2018-04-22T22:51:46.926Z,54.39
2018-04-22T22:54:18.366Z,54.43
2018-04-22T22:56:50.039Z,55.18
2018-04-22T22:59:21.541Z,56.63
2018-04-22T23:01:53.704Z,56.88
2018-04-22T23:04:25.352Z,56.93
2018-04-22T23:06:57.506Z,56.34
2018-04-22T23:09:29.564Z,56.27
2018-04-22T23:12:01.233Z,57.51
2018-04-22T23:14:32.507Z,57.77
2018-04-22T23:17:04.139Z,58.00
2018-04-22T23:19:35.439Z,58.00
2018-04-22T23:22:08.347Z,58.14
2018-04-22T23:24:40.631Z,57.10
2018-04-22T23:27:13.678Z,56.45
2018-04-22T23:29:46.269Z,56.35
2018-04-22T23:32:18.406Z,57.60
2018-04-22T23:34:49.668Z,57.97
2018-04-22T23:37:21.103Z,58.05
2018-04-22T23:39:52.776Z,57.38
2018-04-22T23:42:24.056Z,56.92
2018-04-22T23:44:55.841Z,56.86
2018-04-22T23:47:28.148Z,56.07
2018-04-22T23:52:56.453Z,53.67
2018-04-22T23:55:27.757Z,52.52
2018-04-22T23:57:59.568Z,52.78
